Multan Weather



Multan's Current Weather

Temprature 26.94o smoke

smoke

Rain: 0 %

Min Temprature26.94o
Max Temprature26.94o
Humidity74
Wind Speed2.06 m/h
Sun Rise06:04:21
Sun Set18:06:44
Current Time: 26-Sep-2022 07:09:53
Lat/Lon: 30.1956, 71.4753




Multan's Geo Location



Multan's Weather Forecast

Time Overall Temp Min Temp Max Temp Humidity Wind Speed Rain
26-Sep-2022 (Mon)
08:00:00 scattered clouds 26.940 26.070 26.940 74 3.89 m/h 0 %
11:00:00 scattered clouds 28.730 28.730 32.320 64 3.59 m/h 0 %
14:00:00 few clouds 32.870 32.870 35.830 46 2.68 m/h 0 %
17:00:00 clear sky 35.450 35.450 35.450 33 1.79 m/h 0 %
20:00:00 clear sky 31.380 31.380 31.380 41 2.49 m/h 0 %
23:00:00 clear sky 30.030 30.030 30.030 45 0.26 m/h 0 %
27-Sep-2022 (Tue)
02:00:00 clear sky 28.600 28.600 28.600 47 2.48 m/h 0 %
05:00:00 clear sky 26.990 26.990 26.990 44 2.86 m/h 0 %
08:00:00 clear sky 29.820 29.820 29.820 37 3.11 m/h 0 %
11:00:00 clear sky 35.910 35.910 35.910 26 4.21 m/h 0 %
14:00:00 clear sky 38.400 38.400 38.400 21 4.24 m/h 0 %
17:00:00 clear sky 37.080 37.080 37.080 22 4.18 m/h 0 %
20:00:00 clear sky 32.200 32.200 32.200 29 4.76 m/h 0 %
23:00:00 clear sky 30.310 30.310 30.310 33 4.18 m/h 0 %
28-Sep-2022 (Wed)
02:00:00 clear sky 29.250 29.250 29.250 34 4.63 m/h 0 %
05:00:00 clear sky 28.210 28.210 28.210 35 4.49 m/h 0 %
08:00:00 clear sky 30.280 30.280 30.280 38 5.39 m/h 0 %
11:00:00 clear sky 36.550 36.550 36.550 26 6.04 m/h 0 %
14:00:00 clear sky 38.510 38.510 38.510 20 5.52 m/h 0 %
17:00:00 clear sky 36.550 36.550 36.550 23 5.23 m/h 0 %
20:00:00 clear sky 31.690 31.690 31.690 30 4.3 m/h 0 %
23:00:00 clear sky 29.720 29.720 29.720 24 4.06 m/h 0 %
29-Sep-2022 (Thu)
02:00:00 clear sky 28.450 28.450 28.450 26 4.69 m/h 0 %
05:00:00 clear sky 27.330 27.330 27.330 37 4.49 m/h 0 %
08:00:00 clear sky 30.030 30.030 30.030 43 5.84 m/h 0 %
11:00:00 clear sky 36.150 36.150 36.150 25 6.5 m/h 0 %
14:00:00 clear sky 37.970 37.970 37.970 20 5.12 m/h 0 %
17:00:00 clear sky 36.160 36.160 36.160 22 4.34 m/h 0 %
20:00:00 clear sky 31.160 31.160 31.160 28 3.6 m/h 0 %
23:00:00 clear sky 29.080 29.080 29.080 27 3.37 m/h 0 %
30-Sep-2022 (Fri)
02:00:00 clear sky 27.180 27.180 27.180 30 3.67 m/h 0 %
05:00:00 clear sky 26.400 26.400 26.400 38 3.88 m/h 0 %
08:00:00 clear sky 29.790 29.790 29.790 42 5.55 m/h 0 %
11:00:00 clear sky 36.350 36.350 36.350 27 6.68 m/h 0 %
14:00:00 clear sky 38.470 38.470 38.470 21 5.73 m/h 0 %
17:00:00 clear sky 36.490 36.490 36.490 22 4.79 m/h 0 %
20:00:00 clear sky 31.380 31.380 31.380 29 4.43 m/h 0 %
23:00:00 clear sky 29.570 29.570 29.570 34 4.3 m/h 0 %
01-Oct-2022 (Sat)
02:00:00 clear sky 28.360 28.360 28.360 37 4.7 m/h 0 %
05:00:00 clear sky 27.510 27.510 27.510 36 4.82 m/h 0 %

Famous Cities (61)